Time;durP1;ratioP1;P1;durP2;ratioP2;P2;SDS_P1;SDS_P2;PMS_P1;PMS_P2;Temp;Humidity;BMP_temperature;BMP_pressure;BME280_temperature;BME280_humidity;BME280_pressure;Samples;Min_cycle;Max_cycle;Signal;HPM_P1;HPM_P2
2022/03/16 00:00:56;;;;;;;37.95;21.67;;;;;;;;;;5071763;28;20036;-71
2022/03/16 00:03:22;;;;;;;33.92;20.45;;;;;;;;;;5070705;28;20382;-71
2022/03/16 00:05:48;;;;;;;31.65;19.70;;;;;;;;;;5071945;28;20033;-71
2022/03/16 00:08:14;;;;;;;34.40;20.08;;;;;;;;;;5070084;28;20127;-71
2022/03/16 00:10:40;;;;;;;31.55;20.25;;;;;;;;;;5070961;28;20110;-71
2022/03/16 00:13:06;;;;;;;31.55;18.58;;;;;;;;;;5071872;28;20040;-71
2022/03/16 00:15:32;;;;;;;32.00;19.38;;;;;;;;;;5071295;28;20079;-71
2022/03/16 00:17:58;;;;;;;30.13;18.52;;;;;;;;;;5072048;28;20045;-71
2022/03/16 00:20:24;;;;;;;32.10;20.45;;;;;;;;;;5072045;28;20032;-71
2022/03/16 00:22:50;;;;;;;36.78;20.95;;;;;;;;;;5070141;28;20886;-71
2022/03/16 00:25:16;;;;;;;37.92;22.48;;;;;;;;;;5073143;28;20132;-71
2022/03/16 00:27:42;;;;;;;38.90;23.35;;;;;;;;;;5091691;28;20036;-71
2022/03/16 00:30:08;;;;;;;38.75;22.52;;;;;;;;;;5090233;28;20907;-71
2022/03/16 00:32:34;;;;;;;34.65;21.20;;;;;;;;;;5091857;28;20055;-71
2022/03/16 00:35:01;;;;;;;34.50;21.58;;;;;;;;;;5092060;28;20048;-71
2022/03/16 00:37:28;;;;;;;31.05;20.13;;;;;;;;;;5089893;28;20474;-71
2022/03/16 00:39:54;;;;;;;33.25;20.00;;;;;;;;;;5092070;28;20067;-71
2022/03/16 00:42:21;;;;;;;31.25;19.55;;;;;;;;;;5092093;28;20565;-71
2022/03/16 00:44:48;;;;;;;34.42;20.60;;;;;;;;;;5091419;28;20042;-71
2022/03/16 00:47:14;;;;;;;33.63;18.95;;;;;;;;;;5090492;28;20109;-71
2022/03/16 00:49:40;;;;;;;28.58;18.42;;;;;;;;;;5090441;28;20044;-71
2022/03/16 00:52:06;;;;;;;30.67;19.00;;;;;;;;;;5089905;28;20548;-71
2022/03/16 00:54:32;;;;;;;34.65;19.92;;;;;;;;;;5089725;28;20090;-71
2022/03/16 00:56:58;;;;;;;30.02;18.73;;;;;;;;;;5091323;28;20115;-71
2022/03/16 00:59:24;;;;;;;30.17;18.55;;;;;;;;;;5091489;28;20036;-71
2022/03/16 01:01:50;;;;;;;28.90;18.25;;;;;;;;;;5090010;28;20098;-71
2022/03/16 01:04:16;;;;;;;32.67;18.73;;;;;;;;;;5090517;28;20080;-71
2022/03/16 01:06:42;;;;;;;32.00;19.48;;;;;;;;;;5090271;28;20160;-71
2022/03/16 01:09:08;;;;;;;39.38;20.70;;;;;;;;;;5091304;28;20043;-71
2022/03/16 01:11:34;;;;;;;31.27;18.35;;;;;;;;;;5073249;28;20047;-71
2022/03/16 01:14:01;;;;;;;37.78;20.00;;;;;;;;;;5090431;28;20490;-71
2022/03/16 01:16:27;;;;;;;34.60;20.65;;;;;;;;;;5089405;28;20456;-71
2022/03/16 01:18:53;;;;;;;30.17;19.38;;;;;;;;;;5091631;28;20114;-71
2022/03/16 01:21:19;;;;;;;36.72;20.70;;;;;;;;;;5090218;28;20070;-71
2022/03/16 01:23:45;;;;;;;30.25;17.95;;;;;;;;;;5090871;28;20044;-71
2022/03/16 01:26:12;;;;;;;27.17;17.30;;;;;;;;;;5082504;28;20072;-71
2022/03/16 01:28:38;;;;;;;28.90;18.08;;;;;;;;;;5070129;28;20483;-71
2022/03/16 01:31:04;;;;;;;30.48;19.20;;;;;;;;;;5070485;28;20135;-71
2022/03/16 01:33:30;;;;;;;31.30;17.70;;;;;;;;;;5071139;28;20140;-71
2022/03/16 01:35:56;;;;;;;49.65;26.27;;;;;;;;;;5070905;28;20045;-71
2022/03/16 01:38:22;;;;;;;41.72;24.45;;;;;;;;;;5069207;28;20507;-71
2022/03/16 01:40:48;;;;;;;41.17;22.50;;;;;;;;;;5069809;28;20376;-71
2022/03/16 01:43:14;;;;;;;44.20;23.75;;;;;;;;;;5069916;28;20060;-71
2022/03/16 01:45:47;;;;;;;50.05;25.80;;;;;;;;;;5070299;28;20055;-71
2022/03/16 01:48:13;;;;;;;45.58;24.40;;;;;;;;;;5069580;28;20040;-71
2022/03/16 01:50:39;;;;;;;51.60;26.92;;;;;;;;;;5070050;28;20036;-71
2022/03/16 01:53:05;;;;;;;47.00;26.17;;;;;;;;;;5070402;28;20367;-71
2022/03/16 01:55:32;;;;;;;43.47;24.15;;;;;;;;;;5069706;28;20053;-71
2022/03/16 01:57:58;;;;;;;49.70;26.48;;;;;;;;;;5069744;28;20417;-71
2022/03/16 02:00:24;;;;;;;48.85;27.15;;;;;;;;;;5070433;28;20132;-71
2022/03/16 02:02:50;;;;;;;49.05;26.45;;;;;;;;;;5069588;28;20563;-71
2022/03/16 02:05:16;;;;;;;46.58;24.92;;;;;;;;;;5069775;28;20037;-71
2022/03/16 02:07:43;;;;;;;44.47;25.70;;;;;;;;;;5071793;28;20122;-71
2022/03/16 02:10:10;;;;;;;46.75;24.75;;;;;;;;;;5073154;28;20049;-71
2022/03/16 02:12:46;;;;;;;46.65;24.50;;;;;;;;;;5074545;28;20062;-71
2022/03/16 02:15:12;;;;;;;43.00;23.48;;;;;;;;;;5074042;28;20047;-71
2022/03/16 02:17:39;;;;;;;49.00;23.92;;;;;;;;;;5074702;28;20079;-71
2022/03/16 02:20:06;;;;;;;45.90;24.40;;;;;;;;;;5056464;28;20452;-71
2022/03/16 02:22:35;;;;;;;42.25;23.38;;;;;;;;;;5074007;28;20471;-71
2022/03/16 02:25:02;;;;;;;40.08;23.52;;;;;;;;;;5072806;28;20070;-71
2022/03/16 02:27:28;;;;;;;41.35;21.55;;;;;;;;;;5093588;28;20048;-71
2022/03/16 02:29:54;;;;;;;40.83;20.38;;;;;;;;;;5093821;28;20079;-71
2022/03/16 02:32:20;;;;;;;49.30;19.70;;;;;;;;;;5094365;28;20091;-71
2022/03/16 02:34:46;;;;;;;57.30;21.30;;;;;;;;;;5093071;28;20046;-71
2022/03/16 02:37:12;;;;;;;37.70;20.98;;;;;;;;;;5092128;28;20124;-71
2022/03/16 02:39:38;;;;;;;37.78;20.38;;;;;;;;;;5094501;28;20058;-71
2022/03/16 02:42:05;;;;;;;35.72;21.70;;;;;;;;;;5094212;28;20040;-71
2022/03/16 02:44:31;;;;;;;33.95;19.33;;;;;;;;;;5093643;28;20655;-71
2022/03/16 02:46:59;;;;;;;33.92;20.73;;;;;;;;;;5092553;28;20051;-71
2022/03/16 02:49:28;;;;;;;35.05;19.73;;;;;;;;;;5094183;28;20047;-71
2022/03/16 02:51:54;;;;;;;48.25;20.85;;;;;;;;;;5093401;28;20044;-71
2022/03/16 02:54:20;;;;;;;48.97;23.55;;;;;;;;;;5092720;28;20534;-71
2022/03/16 02:56:47;;;;;;;38.75;21.30;;;;;;;;;;5093678;28;20078;-71
2022/03/16 02:59:13;;;;;;;39.25;20.67;;;;;;;;;;5091875;28;20440;-71
2022/03/16 03:01:39;;;;;;;37.72;21.17;;;;;;;;;;5094033;28;20040;-71
2022/03/16 03:04:05;;;;;;;34.45;19.73;;;;;;;;;;5093576;28;20482;-71
2022/03/16 03:06:31;;;;;;;43.15;21.30;;;;;;;;;;5093038;28;20043;-71
2022/03/16 03:08:58;;;;;;;58.72;22.10;;;;;;;;;;5093689;28;20040;-71
2022/03/16 03:11:24;;;;;;;44.22;19.27;;;;;;;;;;5093578;28;20036;-71
2022/03/16 03:13:50;;;;;;;37.63;19.00;;;;;;;;;;5093018;28;20394;-71
2022/03/16 03:16:15;;;;;;;49.03;18.80;;;;;;;;;;5092050;28;20131;-71
2022/03/16 03:18:41;;;;;;;86.18;19.95;;;;;;;;;;5092951;28;20123;-71
2022/03/16 03:21:07;;;;;;;43.78;17.58;;;;;;;;;;5092537;28;20463;-71
2022/03/16 03:23:34;;;;;;;73.25;17.20;;;;;;;;;;5093369;28;20036;-71
2022/03/16 03:26:00;;;;;;;38.80;14.77;;;;;;;;;;5085898;28;20040;-71
2022/03/16 03:28:26;;;;;;;29.95;13.48;;;;;;;;;;5072568;28;20582;-71
2022/03/16 03:30:52;;;;;;;21.80;15.10;;;;;;;;;;5071718;28;20059;-71
2022/03/16 03:33:18;;;;;;;53.72;16.23;;;;;;;;;;5072752;28;20123;-71
2022/03/16 03:35:44;;;;;;;24.48;14.77;;;;;;;;;;5054428;28;20482;-71
2022/03/16 03:38:10;;;;;;;25.13;15.68;;;;;;;;;;5073040;28;20040;-71
2022/03/16 03:40:36;;;;;;;30.48;15.80;;;;;;;;;;5072799;28;20117;-71
2022/03/16 03:43:02;;;;;;;27.08;15.02;;;;;;;;;;5072185;28;20052;-71
2022/03/16 03:45:28;;;;;;;38.08;15.60;;;;;;;;;;5071442;28;20124;-71
2022/03/16 03:47:54;;;;;;;26.02;15.60;;;;;;;;;;5071227;28;20553;-71
2022/03/16 03:50:20;;;;;;;41.60;16.83;;;;;;;;;;5072266;28;20044;-71
2022/03/16 03:52:46;;;;;;;32.80;17.77;;;;;;;;;;5071200;28;20094;-71
2022/03/16 03:55:12;;;;;;;40.25;18.40;;;;;;;;;;5071492;28;20079;-71
2022/03/16 03:57:38;;;;;;;44.97;17.65;;;;;;;;;;5071767;28;20477;-71
2022/03/16 04:00:05;;;;;;;30.85;17.15;;;;;;;;;;5070988;28;20089;-71
2022/03/16 04:02:31;;;;;;;28.30;16.98;;;;;;;;;;5070771;28;20055;-71
2022/03/16 04:04:57;;;;;;;26.48;17.20;;;;;;;;;;5071869;28;20037;-71
2022/03/16 04:07:23;;;;;;;25.05;15.90;;;;;;;;;;5072017;28;20130;-71
2022/03/16 04:09:50;;;;;;;24.88;16.88;;;;;;;;;;5071163;28;20479;-71
2022/03/16 04:12:17;;;;;;;28.00;17.02;;;;;;;;;;5071253;28;20403;-71
2022/03/16 04:14:43;;;;;;;30.30;18.63;;;;;;;;;;5072266;28;20447;-71
2022/03/16 04:17:09;;;;;;;32.13;18.42;;;;;;;;;;5070463;28;20040;-71
2022/03/16 04:19:35;;;;;;;47.55;20.33;;;;;;;;;;5071400;28;20463;-71
2022/03/16 04:22:02;;;;;;;36.13;18.95;;;;;;;;;;5070718;28;20044;-71
2022/03/16 04:24:28;;;;;;;40.50;19.48;;;;;;;;;;5070437;28;20051;-71
2022/03/16 04:26:54;;;;;;;35.20;18.17;;;;;;;;;;5084127;28;20044;-71
2022/03/16 04:29:20;;;;;;;65.63;20.83;;;;;;;;;;5090725;28;20043;-71
2022/03/16 04:31:46;;;;;;;38.40;19.58;;;;;;;;;;5090418;28;20653;-71
2022/03/16 04:34:12;;;;;;;70.60;20.35;;;;;;;;;;5091408;28;20089;-71
2022/03/16 04:36:38;;;;;;;74.57;20.10;;;;;;;;;;5091783;28;20036;-71
2022/03/16 04:39:04;;;;;;;45.47;18.95;;;;;;;;;;5092045;28;20044;-71
2022/03/16 04:41:30;;;;;;;34.42;19.65;;;;;;;;;;5091471;28;20082;-71
2022/03/16 04:43:56;;;;;;;58.22;19.42;;;;;;;;;;5092249;28;20506;-71
2022/03/16 04:46:22;;;;;;;37.97;18.48;;;;;;;;;;5091818;28;20128;-71
2022/03/16 04:48:48;;;;;;;38.72;17.58;;;;;;;;;;5090165;28;20043;-70
2022/03/16 04:51:14;;;;;;;50.28;18.45;;;;;;;;;;5090117;28;20040;-70
2022/03/16 04:53:40;;;;;;;62.97;18.42;;;;;;;;;;5090282;28;20043;-70
2022/03/16 04:56:07;;;;;;;30.80;16.88;;;;;;;;;;5091718;28;20039;-70
2022/03/16 04:58:33;;;;;;;24.48;16.65;;;;;;;;;;5091283;28;20494;-70
2022/03/16 05:00:59;;;;;;;23.13;15.05;;;;;;;;;;5091826;28;20036;-70
2022/03/16 05:03:25;;;;;;;22.23;15.35;;;;;;;;;;5091313;28;20127;-70
2022/03/16 05:05:51;;;;;;;21.33;15.63;;;;;;;;;;5091150;28;20610;-70
2022/03/16 05:08:17;;;;;;;22.58;15.82;;;;;;;;;;5091142;28;20081;-70
2022/03/16 05:10:43;;;;;;;22.25;15.30;;;;;;;;;;5091251;28;20047;-70
2022/03/16 05:13:09;;;;;;;20.15;14.10;;;;;;;;;;5090804;28;20044;-70
2022/03/16 05:15:35;;;;;;;21.77;13.93;;;;;;;;;;5090064;28;20079;-70
2022/03/16 05:18:01;;;;;;;22.00;14.40;;;;;;;;;;5091724;28;20036;-70
2022/03/16 05:20:28;;;;;;;23.40;15.65;;;;;;;;;;5089372;28;20047;-71
2022/03/16 05:22:55;;;;;;;22.70;14.40;;;;;;;;;;5091223;28;20086;-71
2022/03/16 05:25:23;;;;;;;19.83;14.48;;;;;;;;;;5088411;28;20040;-71
2022/03/16 05:27:49;;;;;;;21.85;15.68;;;;;;;;;;5068925;28;20071;-71
2022/03/16 05:30:15;;;;;;;21.33;14.68;;;;;;;;;;5070947;28;20052;-71
2022/03/16 05:32:42;;;;;;;24.13;17.52;;;;;;;;;;5071064;28;20411;-71
2022/03/16 05:35:12;;;;;;;23.27;15.15;;;;;;;;;;5069332;28;20507;-71
2022/03/16 05:37:39;;;;;;;25.52;16.73;;;;;;;;;;5071286;28;20380;-71
2022/03/16 05:40:05;;;;;;;25.00;16.92;;;;;;;;;;5071386;28;20032;-71
2022/03/16 05:42:31;;;;;;;31.15;18.92;;;;;;;;;;5055104;28;20040;-71
2022/03/16 05:44:57;;;;;;;38.33;22.38;;;;;;;;;;5075021;28;20071;-71
2022/03/16 05:47:24;;;;;;;33.90;19.75;;;;;;;;;;5073605;28;20483;-71
2022/03/16 05:49:50;;;;;;;33.83;20.02;;;;;;;;;;5074425;28;20040;-71
2022/03/16 05:52:19;;;;;;;37.55;20.08;;;;;;;;;;5073406;28;20071;-71
2022/03/16 05:54:45;;;;;;;35.60;20.42;;;;;;;;;;5075105;28;20036;-71
2022/03/16 05:57:13;;;;;;;27.95;17.67;;;;;;;;;;5073821;28;20036;-71
2022/03/16 05:59:40;;;;;;;28.00;16.75;;;;;;;;;;5073199;28;20052;-71
2022/03/16 06:02:06;;;;;;;27.48;17.33;;;;;;;;;;5075071;28;20040;-71
2022/03/16 06:04:32;;;;;;;27.05;17.63;;;;;;;;;;5072580;28;20052;-71
2022/03/16 06:06:58;;;;;;;26.30;16.98;;;;;;;;;;5056205;28;20044;-71
2022/03/16 06:09:24;;;;;;;27.33;19.00;;;;;;;;;;5073189;28;20076;-70
2022/03/16 06:11:51;;;;;;;27.15;16.95;;;;;;;;;;5073753;28;20048;-70
2022/03/16 06:14:17;;;;;;;24.92;17.05;;;;;;;;;;5074530;28;20036;-70
2022/03/16 06:16:44;;;;;;;31.02;18.85;;;;;;;;;;5055864;28;20041;-71
2022/03/16 06:19:10;;;;;;;30.15;17.45;;;;;;;;;;5073589;28;20036;-71
2022/03/16 06:21:36;;;;;;;27.90;17.95;;;;;;;;;;5073992;28;20101;-71
2022/03/16 06:24:03;;;;;;;26.52;17.55;;;;;;;;;;5072847;28;20040;-70
2022/03/16 06:26:29;;;;;;;29.02;18.35;;;;;;;;;;5083103;28;20036;-70
2022/03/16 06:28:55;;;;;;;29.30;18.50;;;;;;;;;;5094179;28;20466;-71
2022/03/16 06:31:21;;;;;;;37.80;22.75;;;;;;;;;;5093834;28;20052;-71
2022/03/16 06:33:47;;;;;;;33.38;21.05;;;;;;;;;;5093668;28;20051;-71
2022/03/16 06:36:13;;;;;;;35.83;22.88;;;;;;;;;;5094303;28;20372;-71
2022/03/16 06:38:39;;;;;;;40.80;24.05;;;;;;;;;;5094158;28;20036;-71
2022/03/16 06:41:05;;;;;;;40.13;23.52;;;;;;;;;;5093166;28;20122;-71
2022/03/16 06:43:31;;;;;;;37.42;22.70;;;;;;;;;;5092710;28;20044;-71
2022/03/16 06:45:57;;;;;;;39.80;23.10;;;;;;;;;;5092486;28;20101;-71
2022/03/16 06:48:24;;;;;;;38.90;22.67;;;;;;;;;;5090295;28;20044;-70
2022/03/16 06:50:51;;;;;;;38.42;22.60;;;;;;;;;;5091351;28;20051;-71
2022/03/16 06:53:17;;;;;;;35.53;22.02;;;;;;;;;;5090760;28;20039;-71
2022/03/16 06:55:43;;;;;;;39.05;23.65;;;;;;;;;;5084744;28;20036;-71
2022/03/16 06:58:09;;;;;;;36.78;22.88;;;;;;;;;;5082287;28;20047;-71
2022/03/16 07:00:35;;;;;;;37.83;23.23;;;;;;;;;;5080543;28;20025;-71
2022/03/16 07:03:02;;;;;;;43.70;24.20;;;;;;;;;;5092870;28;20040;-71
2022/03/16 07:05:28;;;;;;;42.58;24.38;;;;;;;;;;5093520;28;20036;-71
2022/03/16 07:07:59;;;;;;;40.15;24.92;;;;;;;;;;5092216;28;20052;-71
2022/03/16 07:10:26;;;;;;;44.05;26.20;;;;;;;;;;5091561;28;20047;-71
2022/03/16 07:12:52;;;;;;;42.90;25.95;;;;;;;;;;5079685;28;20494;-71
2022/03/16 07:15:18;;;;;;;43.90;26.27;;;;;;;;;;5080154;28;20048;-71
2022/03/16 07:17:45;;;;;;;43.42;26.80;;;;;;;;;;5091569;28;20063;-71
2022/03/16 07:20:11;;;;;;;46.33;27.75;;;;;;;;;;5085718;28;20650;-70
2022/03/16 07:22:37;;;;;;;47.70;26.80;;;;;;;;;;5073095;28;20074;-70
2022/03/16 07:25:04;;;;;;;44.75;27.00;;;;;;;;;;5092282;28;20139;-70
2022/03/16 07:27:30;;;;;;;48.95;28.23;;;;;;;;;;5093436;28;20039;-70
2022/03/16 07:29:56;;;;;;;43.78;26.90;;;;;;;;;;5093332;28;20044;-71
2022/03/16 07:32:23;;;;;;;45.88;27.27;;;;;;;;;;5092207;28;20052;-70
2022/03/16 07:34:49;;;;;;;46.60;28.23;;;;;;;;;;5073418;28;20128;-70
2022/03/16 07:37:15;;;;;;;47.13;28.60;;;;;;;;;;5092093;28;20028;-70
2022/03/16 07:39:41;;;;;;;46.95;28.70;;;;;;;;;;5080580;28;20040;-72
2022/03/16 07:42:07;;;;;;;47.40;28.60;;;;;;;;;;5083930;28;20066;-68
2022/03/16 07:44:33;;;;;;;45.83;28.10;;;;;;;;;;5085632;28;20649;-71
2022/03/16 07:47:02;;;;;;;47.13;29.55;;;;;;;;;;5089689;28;20047;-71
2022/03/16 07:49:28;;;;;;;45.15;26.40;;;;;;;;;;5084435;28;20744;-71
2022/03/16 07:51:55;;;;;;;43.83;26.48;;;;;;;;;;5076872;28;20127;-71
2022/03/16 07:54:21;;;;;;;46.03;25.77;;;;;;;;;;5082115;28;20161;-72
2022/03/16 07:56:47;;;;;;;43.45;25.95;;;;;;;;;;5089343;28;20028;-72
2022/03/16 07:59:14;;;;;;;43.22;26.67;;;;;;;;;;5090092;28;20119;-72
2022/03/16 08:01:41;;;;;;;46.20;27.48;;;;;;;;;;5088923;28;20036;-70
2022/03/16 08:04:07;;;;;;;39.83;25.63;;;;;;;;;;5089772;28;20169;-70
2022/03/16 08:06:34;;;;;;;43.42;25.48;;;;;;;;;;5089457;28;20032;-70
2022/03/16 08:09:00;;;;;;;40.20;24.08;;;;;;;;;;5080095;28;20121;-68
2022/03/16 08:11:26;;;;;;;46.08;26.35;;;;;;;;;;5074169;28;20462;-70
2022/03/16 08:13:52;;;;;;;40.85;26.63;;;;;;;;;;5090531;28;20146;-70
2022/03/16 08:16:18;;;;;;;41.83;25.73;;;;;;;;;;5088879;28;20119;-71
2022/03/16 08:18:44;;;;;;;40.88;24.67;;;;;;;;;;5091490;28;20498;-71
2022/03/16 08:21:11;;;;;;;42.60;25.83;;;;;;;;;;5088778;28;20141;-71
2022/03/16 08:23:38;;;;;;;46.47;25.48;;;;;;;;;;5081992;28;20056;-71
2022/03/16 08:26:04;;;;;;;45.42;26.02;;;;;;;;;;5078710;28;20637;-69
2022/03/16 08:28:30;;;;;;;41.95;26.52;;;;;;;;;;5072646;28;20097;-70
2022/03/16 08:30:58;;;;;;;43.25;25.35;;;;;;;;;;5081493;28;20476;-69
2022/03/16 08:33:24;;;;;;;36.95;24.40;;;;;;;;;;5068521;28;20053;-70
2022/03/16 08:35:50;;;;;;;39.50;24.48;;;;;;;;;;5083475;28;20415;-69
2022/03/16 08:38:16;;;;;;;42.65;24.20;;;;;;;;;;5073877;28;20051;-70
2022/03/16 08:40:43;;;;;;;39.40;23.52;;;;;;;;;;5085681;28;20044;-71
2022/03/16 08:43:09;;;;;;;44.20;24.02;;;;;;;;;;5086173;28;20036;-70
2022/03/16 08:45:35;;;;;;;40.00;23.80;;;;;;;;;;5088280;28;20040;-70
2022/03/16 08:48:01;;;;;;;45.05;24.65;;;;;;;;;;5086638;28;20367;-70
2022/03/16 08:50:31;;;;;;;43.58;24.73;;;;;;;;;;5083810;28;20114;-70
2022/03/16 08:52:57;;;;;;;45.92;24.63;;;;;;;;;;5077511;28;20692;-70
2022/03/16 08:55:24;;;;;;;39.97;24.98;;;;;;;;;;5087562;28;20459;-70
2022/03/16 08:57:50;;;;;;;40.33;24.35;;;;;;;;;;5089984;28;20505;-70
2022/03/16 09:00:18;;;;;;;42.15;24.58;;;;;;;;;;5082530;28;20131;-70
2022/03/16 09:02:44;;;;;;;41.35;25.45;;;;;;;;;;5087065;28;20039;-70
2022/03/16 09:05:12;;;;;;;44.92;26.58;;;;;;;;;;5082089;28;20071;-70
2022/03/16 09:07:38;;;;;;;39.45;24.02;;;;;;;;;;5074935;28;20497;-69
2022/03/16 09:10:06;;;;;;;40.95;24.70;;;;;;;;;;5083215;28;20802;-70
2022/03/16 09:12:32;;;;;;;38.85;24.00;;;;;;;;;;5081842;28;20618;-69
2022/03/16 09:14:58;;;;;;;44.28;25.25;;;;;;;;;;5086178;28;20608;-68
2022/03/16 09:17:24;;;;;;;38.72;22.27;;;;;;;;;;5082747;28;20161;-69
2022/03/16 09:19:52;;;;;;;34.40;22.10;;;;;;;;;;5082581;28;20101;-70
2022/03/16 09:22:18;;;;;;;39.83;23.05;;;;;;;;;;5089038;28;20052;-70
2022/03/16 09:24:45;;;;;;;33.53;21.05;;;;;;;;;;5079107;28;20044;-70
2022/03/16 09:27:11;;;;;;;41.67;21.85;;;;;;;;;;5089829;28;20048;-71
2022/03/16 09:29:37;;;;;;;35.90;20.65;;;;;;;;;;5086464;28;20040;-70
2022/03/16 09:32:05;;;;;;;31.42;19.40;;;;;;;;;;5091812;28;20129;-70
2022/03/16 09:34:31;;;;;;;31.27;18.50;;;;;;;;;;5091690;28;20047;-70
2022/03/16 09:36:57;;;;;;;32.67;18.98;;;;;;;;;;5083311;28;20028;-69
2022/03/16 09:39:23;;;;;;;29.02;17.35;;;;;;;;;;5088649;28;20066;-70
2022/03/16 09:41:49;;;;;;;33.50;17.88;;;;;;;;;;5089638;28;20065;-71
2022/03/16 09:44:15;;;;;;;28.90;17.40;;;;;;;;;;5081937;28;20044;-71
2022/03/16 09:46:44;;;;;;;26.55;16.90;;;;;;;;;;5076702;28;20045;-71
2022/03/16 09:49:14;;;;;;;27.50;16.92;;;;;;;;;;5084003;28;20044;-71
2022/03/16 09:51:41;;;;;;;27.50;16.83;;;;;;;;;;5079898;28;20395;-70
2022/03/16 09:54:07;;;;;;;26.70;16.75;;;;;;;;;;5081336;28;20039;-71
2022/03/16 09:56:34;;;;;;;27.50;15.88;;;;;;;;;;5080133;28;20032;-71
2022/03/16 09:59:00;;;;;;;24.38;15.05;;;;;;;;;;5090507;28;20434;-70
2022/03/16 10:01:26;;;;;;;23.77;14.63;;;;;;;;;;5086257;28;20039;-71
2022/03/16 10:03:54;;;;;;;28.63;15.77;;;;;;;;;;5089299;28;20054;-71
2022/03/16 10:06:24;;;;;;;25.17;14.30;;;;;;;;;;5084826;28;20151;-71
2022/03/16 10:14:20;;;;;;;24.08;14.57;;;;;;;;;;5086156;28;20091;-71
2022/03/16 10:19:48;;;;;;;25.40;14.73;;;;;;;;;;5090353;28;20036;-71
2022/03/16 10:22:23;;;;;;;22.90;14.40;;;;;;;;;;5085975;28;20098;-70
2022/03/16 10:24:54;;;;;;;26.05;14.88;;;;;;;;;;5088867;28;20040;-70
2022/03/16 10:27:21;;;;;;;23.85;14.45;;;;;;;;;;5074848;28;20437;-70
2022/03/16 10:29:50;;;;;;;20.30;13.73;;;;;;;;;;5080502;28;20042;-70
2022/03/16 10:32:16;;;;;;;21.63;13.65;;;;;;;;;;5092091;28;20056;-70
2022/03/16 10:35:08;;;;;;;25.15;14.65;;;;;;;;;;5090062;28;20536;-70
2022/03/16 10:37:36;;;;;;;26.00;15.15;;;;;;;;;;5088138;28;20051;-70
2022/03/16 10:40:15;;;;;;;21.90;13.77;;;;;;;;;;5083257;28;20043;-70
2022/03/16 10:48:15;;;;;;;22.08;14.27;;;;;;;;;;5085819;28;20048;-70
2022/03/16 10:50:42;;;;;;;25.00;13.75;;;;;;;;;;5090104;28;20091;-70
2022/03/16 10:53:12;;;;;;;21.70;13.50;;;;;;;;;;5083461;28;20036;-70
2022/03/16 10:55:39;;;;;;;23.52;13.73;;;;;;;;;;5089765;28;20040;-71
2022/03/16 10:58:06;;;;;;;22.65;13.93;;;;;;;;;;5086571;28;20040;-71
2022/03/16 11:00:36;;;;;;;19.55;12.90;;;;;;;;;;5087289;28;20056;-70
2022/03/16 11:03:03;;;;;;;21.15;12.10;;;;;;;;;;5089651;28;20032;-70
2022/03/16 11:05:29;;;;;;;23.17;12.55;;;;;;;;;;5081739;28;20056;-70
2022/03/16 11:07:55;;;;;;;22.75;12.95;;;;;;;;;;5090723;28;20039;-70
2022/03/16 11:10:21;;;;;;;22.08;12.63;;;;;;;;;;5083913;28;20045;-70
2022/03/16 11:15:33;;;;;;;20.92;13.00;;;;;;;;;;5086242;28;20051;-70
2022/03/16 11:17:59;;;;;;;21.20;11.65;;;;;;;;;;5087394;28;20035;-69
2022/03/16 11:20:26;;;;;;;19.95;11.20;;;;;;;;;;5090736;28;20506;-70
2022/03/16 11:25:59;;;;;;;16.33;10.60;;;;;;;;;;5079415;28;20051;-71
2022/03/16 11:28:43;;;;;;;19.50;10.95;;;;;;;;;;5087923;28;20037;-71
2022/03/16 11:31:13;;;;;;;17.90;11.45;;;;;;;;;;5081077;28;20481;-71
2022/03/16 11:33:50;;;;;;;16.50;11.05;;;;;;;;;;5082324;28;20579;-71
2022/03/16 11:36:32;;;;;;;17.10;10.75;;;;;;;;;;5090170;28;20119;-71
2022/03/16 11:39:02;;;;;;;15.45;10.68;;;;;;;;;;5086916;28;20059;-71
2022/03/16 11:41:30;;;;;;;18.33;10.88;;;;;;;;;;5082396;28;20036;-71
2022/03/16 11:44:19;;;;;;;16.52;11.35;;;;;;;;;;5084539;28;20074;-71
2022/03/16 11:46:46;;;;;;;17.40;10.80;;;;;;;;;;5079814;28;20098;-71
2022/03/16 11:49:12;;;;;;;17.65;11.20;;;;;;;;;;5091612;28;20089;-71
2022/03/16 11:51:56;;;;;;;16.42;10.32;;;;;;;;;;5065719;28;20048;-71
2022/03/16 11:54:39;;;;;;;19.30;10.75;;;;;;;;;;5083315;28;20189;-71
2022/03/16 11:57:05;;;;;;;17.65;10.30;;;;;;;;;;5081812;28;20044;-70
2022/03/16 11:59:32;;;;;;;16.95;11.27;;;;;;;;;;5082676;28;20043;-70
2022/03/16 12:02:15;;;;;;;20.60;11.85;;;;;;;;;;5089060;28;20089;-69
2022/03/16 12:04:46;;;;;;;21.75;11.60;;;;;;;;;;5088635;28;20043;-70
2022/03/16 12:07:15;;;;;;;17.83;11.48;;;;;;;;;;5082303;28;20063;-69
2022/03/16 12:09:41;;;;;;;21.27;12.57;;;;;;;;;;5085188;28;20066;-70
2022/03/16 12:15:02;;;;;;;22.45;12.25;;;;;;;;;;5074935;28;20051;-70
2022/03/16 12:17:28;;;;;;;21.08;12.57;;;;;;;;;;5090701;28;20047;-70
2022/03/16 12:20:10;;;;;;;22.38;12.50;;;;;;;;;;5082257;28;20052;-71
2022/03/16 12:22:56;;;;;;;19.55;12.60;;;;;;;;;;5088428;28;20482;-71
2022/03/16 12:25:26;;;;;;;19.25;12.60;;;;;;;;;;5090580;28;20048;-71
2022/03/16 12:30:55;;;;;;;22.55;12.65;;;;;;;;;;5080961;28;20060;-71
2022/03/16 12:33:25;;;;;;;19.92;12.60;;;;;;;;;;5079591;28;20417;-71
2022/03/16 12:36:00;;;;;;;19.60;11.35;;;;;;;;;;5089926;28;20401;-71
2022/03/16 12:38:27;;;;;;;18.45;11.45;;;;;;;;;;5088912;28;20093;-71
2022/03/16 12:43:38;;;;;;;20.13;12.02;;;;;;;;;;5090769;28;20040;-71
2022/03/16 12:46:07;;;;;;;18.73;11.45;;;;;;;;;;5091144;28;20040;-71
2022/03/16 12:48:36;;;;;;;21.73;12.45;;;;;;;;;;5091152;28;20044;-72
2022/03/16 12:51:02;;;;;;;18.92;12.05;;;;;;;;;;5087669;28;20079;-71
2022/03/16 12:53:45;;;;;;;17.85;11.68;;;;;;;;;;5090423;28;20490;-71
2022/03/16 12:56:12;;;;;;;17.40;11.88;;;;;;;;;;5090902;28;20048;-72
2022/03/16 12:58:39;;;;;;;19.58;11.75;;;;;;;;;;5090474;28;20406;-71
2022/03/16 13:01:05;;;;;;;14.32;10.27;;;;;;;;;;5089168;28;20076;-71
2022/03/16 13:03:32;;;;;;;16.00;11.00;;;;;;;;;;5089915;28;20082;-71
2022/03/16 13:05:59;;;;;;;20.58;11.18;;;;;;;;;;5082372;28;20040;-72
2022/03/16 13:08:25;;;;;;;15.45;10.98;;;;;;;;;;5090734;28;20044;-72
2022/03/16 13:11:15;;;;;;;16.08;11.07;;;;;;;;;;5089565;28;20046;-72
2022/03/16 13:13:46;;;;;;;16.23;10.93;;;;;;;;;;5083231;28;20121;-70
2022/03/16 13:16:29;;;;;;;17.35;11.77;;;;;;;;;;5089513;28;20044;-72
2022/03/16 13:18:55;;;;;;;16.35;11.80;;;;;;;;;;5091166;28;20034;-72
2022/03/16 13:21:25;;;;;;;15.75;11.73;;;;;;;;;;5088902;28;21403;-72
2022/03/16 13:24:01;;;;;;;16.52;11.27;;;;;;;;;;5087907;28;20782;-71
2022/03/16 13:26:28;;;;;;;15.88;11.43;;;;;;;;;;5084159;28;20490;-72
2022/03/16 13:28:57;;;;;;;17.98;11.80;;;;;;;;;;5087170;28;20032;-72
2022/03/16 13:31:30;;;;;;;15.27;11.13;;;;;;;;;;5087276;28;20060;-72
2022/03/16 13:34:03;;;;;;;19.00;12.02;;;;;;;;;;5087375;28;20086;-72
2022/03/16 13:36:39;;;;;;;20.10;12.20;;;;;;;;;;5088330;28;20123;-72
2022/03/16 13:39:19;;;;;;;21.50;11.13;;;;;;;;;;5089311;28;20044;-72
2022/03/16 13:42:05;;;;;;;16.33;10.68;;;;;;;;;;5089053;28;20105;-72
2022/03/16 13:44:37;;;;;;;16.80;11.25;;;;;;;;;;5090428;28;20056;-71
2022/03/16 13:47:03;;;;;;;16.83;12.13;;;;;;;;;;5077421;28;20627;-72
2022/03/16 13:49:34;;;;;;;16.52;11.90;;;;;;;;;;5089845;28;20081;-72
2022/03/16 13:52:02;;;;;;;14.52;11.23;;;;;;;;;;5089079;28;20398;-72
2022/03/16 13:54:28;;;;;;;17.80;12.25;;;;;;;;;;5086232;28;20368;-72
2022/03/16 13:56:54;;;;;;;16.52;12.20;;;;;;;;;;5089097;28;20032;-72
2022/03/16 13:59:21;;;;;;;19.73;11.48;;;;;;;;;;5090534;28;20040;-72
2022/03/16 14:01:48;;;;;;;15.40;11.35;;;;;;;;;;5085627;28;20514;-72
2022/03/16 14:04:19;;;;;;;16.98;11.77;;;;;;;;;;5086042;28;20048;-72
2022/03/16 14:06:50;;;;;;;15.25;11.73;;;;;;;;;;5093962;28;20174;-72
2022/03/16 14:09:20;;;;;;;17.02;11.77;;;;;;;;;;5092301;28;20113;-72
2022/03/16 14:11:50;;;;;;;16.65;11.68;;;;;;;;;;5093068;28;20122;-72
2022/03/16 14:14:16;;;;;;;18.38;12.68;;;;;;;;;;5091816;28;20498;-72
2022/03/16 14:16:45;;;;;;;17.50;11.68;;;;;;;;;;5093941;28;20051;-72
2022/03/16 14:19:44;;;;;;;21.38;12.63;;;;;;;;;;5093066;28;20040;-72
2022/03/16 14:22:13;;;;;;;18.40;12.77;;;;;;;;;;5091974;28;20410;-73
2022/03/16 14:24:40;;;;;;;17.98;13.00;;;;;;;;;;5092456;28;20050;-72
2022/03/16 14:27:26;;;;;;;18.10;12.82;;;;;;;;;;5093080;28;20501;-72
2022/03/16 14:29:52;;;;;;;20.42;13.52;;;;;;;;;;5091845;28;20082;-72
2022/03/16 14:32:20;;;;;;;20.67;13.80;;;;;;;;;;5091901;28;20137;-72
2022/03/16 14:34:47;;;;;;;16.83;12.45;;;;;;;;;;5084283;28;20036;-72
2022/03/16 14:37:13;;;;;;;19.55;13.38;;;;;;;;;;5085084;28;20040;-72
2022/03/16 14:39:39;;;;;;;19.83;12.93;;;;;;;;;;5093359;28;20042;-72
2022/03/16 14:42:05;;;;;;;18.83;12.63;;;;;;;;;;5090402;28;20051;-72
2022/03/16 14:44:32;;;;;;;18.17;12.88;;;;;;;;;;5093473;28;20040;-71
2022/03/16 14:46:58;;;;;;;19.17;12.65;;;;;;;;;;5091755;28;20044;-72